Isabella — 9HSL7 — position and weather

sailwx.info

Track history (hours):
 
Tides and Currents Weather Stations Pressure Air Temp Water Temp Dewpoint Dewpoint Depression Visibility Wind Speed Wind Dir Waves Ship Positions

Isabella

Last reported at 2015-Feb-27 18:25 UTC. Time now 2015-Mar-06 21:42 UTC.
Position N 32°56' E 033°38'.

Length 244 m; draft 8 m.

Type: Tanker. MMSI: 215545000.

Date/timePositionNaut miles runAvg speedWind from/ knotsBaromVisibWave heightAir tempDewpointWater temp
2015-Feb-27 18:25N 32°56' E 033°38'8 8.8
2015-Feb-27 17:33N 32°58' E 033°46'  
2015-Feb-23 11:04N 36°45' E 026°27'43 9.4
2015-Feb-23 06:28N 37°21' E 025°56'910.0
2015-Feb-23 05:33N 37°29' E 025°50'1010.1
2015-Feb-23 04:33N 37°37' E 025°43'12 9.7
2015-Feb-23 03:21N 37°49' E 025°43'  
2015-Feb-20 09:30N 40°53' E 028°37'1211.1
2015-Feb-20 08:27N 40°55' E 028°53'6 7.1
2015-Feb-20 07:33N 40°59' E 028°59'1010.1
2015-Feb-20 06:33N 41°09' E 029°04'9 7.7
2015-Feb-20 05:23N 41°17' E 029°09'5 5.5
2015-Feb-20 04:26N 41°21' E 029°04'10 0.7
2015-Feb-19 13:03N 41°30' E 029°10'1 1.2
2015-Feb-19 12:33N 41°29' E 029°11'1 0.8
2015-Feb-19 11:33N 41°29' E 029°11'1 0.6
2015-Feb-19 10:33N 41°29' E 029°12'1 0.9
2015-Feb-19 09:33N 41°29' E 029°13'1 0.6
2015-Feb-19 08:33N 41°29' E 029°14'0 0.4
2015-Feb-19 07:33N 41°29' E 029°14'1 0.6
2015-Feb-19 06:33N 41°29' E 029°15'1 0.8
2015-Feb-19 05:29N 41°30' E 029°16'1 0.8
2015-Feb-19 04:33N 41°29' E 029°16'5 0.5
2015-Feb-18 18:21N 41°29' E 029°09'2 1.8
2015-Feb-18 17:31N 41°28' E 029°10'1 1.5
2015-Feb-18 16:33N 41°27' E 029°11'4 3.6
2015-Feb-18 15:33N 41°23' E 029°13'1 1.3
2015-Feb-18 14:33N 41°22' E 029°14'2 2.4
2015-Feb-18 13:33N 41°24' E 029°11'2 1.6
2015-Feb-18 12:33N 41°25' E 029°10'2 1.2
2015-Feb-18 10:33N 41°26' E 029°14'2 2.4
2015-Feb-18 09:33N 41°24' E 029°11'1 1.2
2015-Feb-18 08:33N 41°23' E 029°11'0 0.5
2015-Feb-18 07:33N 41°23' E 029°10'3 2.9
2015-Feb-18 06:33N 41°20' E 029°10'3 2.7
2015-Feb-18 05:33N 41°22' E 029°13'3 3.0
2015-Feb-18 04:30N 41°25' E 029°13'  
Track history (hours):
 
Tides and Currents Weather Stations Pressure Air Temp Water Temp Dewpoint Dewpoint Depression Visibility Wind Speed Wind Dir Waves Ship Positions

Isabella

Last reported at 2015-Feb-27 18:25 UTC. Time now 2015-Mar-06 21:42 UTC.
Position N 32°56' E 033°38'.

Length 244 m; draft 8 m.

Type: Tanker. MMSI: 215545000.

Date/timePositionNaut miles runAvg speedWind from/ knotsBaromVisibWave heightAir tempDewpointWater temp
2015-Feb-27 18:25N 32°56' E 033°38'8 8.8
2015-Feb-27 17:33N 32°58' E 033°46'  
2015-Feb-23 11:04N 36°45' E 026°27'43 9.4
2015-Feb-23 06:28N 37°21' E 025°56'910.0
2015-Feb-23 05:33N 37°29' E 025°50'1010.1
2015-Feb-23 04:33N 37°37' E 025°43'12 9.7
2015-Feb-23 03:21N 37°49' E 025°43'  
2015-Feb-20 09:30N 40°53' E 028°37'1211.1
2015-Feb-20 08:27N 40°55' E 028°53'6 7.1
2015-Feb-20 07:33N 40°59' E 028°59'1010.1
2015-Feb-20 06:33N 41°09' E 029°04'9 7.7
2015-Feb-20 05:23N 41°17' E 029°09'5 5.5
2015-Feb-20 04:26N 41°21' E 029°04'10 0.7
2015-Feb-19 13:03N 41°30' E 029°10'1 1.2
2015-Feb-19 12:33N 41°29' E 029°11'1 0.8
2015-Feb-19 11:33N 41°29' E 029°11'1 0.6
2015-Feb-19 10:33N 41°29' E 029°12'1 0.9
2015-Feb-19 09:33N 41°29' E 029°13'1 0.6
2015-Feb-19 08:33N 41°29' E 029°14'0 0.4
2015-Feb-19 07:33N 41°29' E 029°14'1 0.6
2015-Feb-19 06:33N 41°29' E 029°15'1 0.8
2015-Feb-19 05:29N 41°30' E 029°16'1 0.8
2015-Feb-19 04:33N 41°29' E 029°16'5 0.5
2015-Feb-18 18:21N 41°29' E 029°09'2 1.8
2015-Feb-18 17:31N 41°28' E 029°10'1 1.5
2015-Feb-18 16:33N 41°27' E 029°11'4 3.6
2015-Feb-18 15:33N 41°23' E 029°13'1 1.3
2015-Feb-18 14:33N 41°22' E 029°14'2 2.4
2015-Feb-18 13:33N 41°24' E 029°11'2 1.6
2015-Feb-18 12:33N 41°25' E 029°10'2 1.2
2015-Feb-18 10:33N 41°26' E 029°14'2 2.4
2015-Feb-18 09:33N 41°24' E 029°11'1 1.2
2015-Feb-18 08:33N 41°23' E 029°11'0 0.5
2015-Feb-18 07:33N 41°23' E 029°10'3 2.9
2015-Feb-18 06:33N 41°20' E 029°10'3 2.7
2015-Feb-18 05:33N 41°22' E 029°13'3 3.0
2015-Feb-18 04:30N 41°25' E 029°13'  

Dump ship's entire track history